Time;durP1;ratioP1;P1;durP2;ratioP2;P2;SDS_P1;SDS_P2;PMS_P1;PMS_P2;Temp;Humidity;BMP_temperature;BMP_pressure;BME280_temperature;BME280_humidity;BME280_pressure;Samples;Min_cycle;Max_cycle;Signal;HPM_P1;HPM_P2
2023/06/07 00:00:21;;;;;;;18.60;13.00;;;;;;;16.50;100.00;99061.36;273683;1270;22418;-86
2023/06/07 00:06:44;;;;;;;16.20;12.20;;;;;;;16.49;100.00;99065.80;273720;1266;22321;-86
2023/06/07 00:12:48;;;;;;;14.50;12.10;;;;;;;16.48;100.00;99066.46;273448;1266;22392;-88
2023/06/07 00:18:52;;;;;;;15.80;11.90;;;;;;;16.45;100.00;99067.33;273326;1254;22471;-85
2023/06/07 00:24:54;;;;;;;20.40;13.30;;;;;;;16.42;100.00;99060.80;273367;1267;23201;-87
2023/06/07 00:30:55;;;;;;;16.10;12.40;;;;;;;16.36;100.00;99060.46;273612;1266;22275;-86
2023/06/07 00:37:24;;;;;;;16.60;12.90;;;;;;;16.31;100.00;99059.11;273414;1267;22255;-87
2023/06/07 00:43:37;;;;;;;15.50;12.70;;;;;;;16.27;100.00;99059.30;273586;1267;22386;-87
2023/06/07 00:49:38;;;;;;;18.10;13.50;;;;;;;16.25;100.00;99055.62;273556;1267;22425;-86
2023/06/07 00:55:40;;;;;;;16.80;12.90;;;;;;;16.24;100.00;99050.02;273578;1266;22225;-87
2023/06/07 01:01:44;;;;;;;16.50;13.50;;;;;;;16.23;100.00;99049.34;273409;1267;22574;-86
2023/06/07 01:07:47;;;;;;;19.10;13.80;;;;;;;16.19;100.00;99055.30;273904;1266;22385;-86
2023/06/07 01:13:53;;;;;;;17.40;13.70;;;;;;;16.17;100.00;99051.53;273416;1267;22403;-86
2023/06/07 01:19:58;;;;;;;17.60;15.10;;;;;;;16.13;100.00;99048.09;273599;1266;22421;-87
2023/06/07 01:26:01;;;;;;;17.40;14.50;;;;;;;16.09;100.00;99046.01;273546;1267;22397;-84
2023/06/07 01:32:05;;;;;;;16.30;13.70;;;;;;;16.08;100.00;99042.48;273458;1258;22472;-84
2023/06/07 01:38:10;;;;;;;18.90;16.10;;;;;;;16.06;100.00;99035.23;273637;1267;22376;-84
2023/06/07 01:44:13;;;;;;;19.40;15.90;;;;;;;16.06;100.00;99032.88;273670;1267;22132;-84
2023/06/07 01:50:20;;;;;;;20.40;16.50;;;;;;;16.06;100.00;99036.34;273922;1266;22842;-84
2023/06/07 01:56:50;;;;;;;18.70;15.80;;;;;;;16.04;100.00;99033.91;273800;1267;23052;-84
2023/06/07 02:03:13;;;;;;;19.20;15.60;;;;;;;16.03;100.00;99032.66;273305;1266;22511;-84
2023/06/07 02:09:15;;;;;;;19.10;16.00;;;;;;;16.04;100.00;99034.70;273889;1267;22361;-83
2023/06/07 02:15:18;;;;;;;18.70;15.50;;;;;;;16.05;100.00;99028.77;273687;1266;22520;-85
2023/06/07 02:21:20;;;;;;;19.00;14.90;;;;;;;16.03;100.00;99030.52;273656;1266;23244;-86
2023/06/07 02:27:21;;;;;;;19.30;15.10;;;;;;;15.98;100.00;99032.47;273733;1266;22381;-85
2023/06/07 02:33:26;;;;;;;18.00;15.00;;;;;;;15.94;100.00;99034.64;273693;1267;22461;-85
2023/06/07 02:39:32;;;;;;;19.80;15.70;;;;;;;15.89;100.00;99036.18;273647;1266;23554;-86
2023/06/07 02:45:34;;;;;;;18.20;16.00;;;;;;;15.87;100.00;99032.11;273376;1267;22230;-85
2023/06/07 02:51:39;;;;;;;20.30;15.50;;;;;;;15.87;100.00;99036.28;271760;1266;22559;-86
2023/06/07 02:57:45;;;;;;;18.00;16.00;;;;;;;15.86;100.00;99040.48;271824;1266;23912;-86
2023/06/07 03:03:49;;;;;;;21.70;17.20;;;;;;;15.85;100.00;99041.11;273483;1267;22409;-86
2023/06/07 03:09:51;;;;;;;21.40;16.30;;;;;;;15.84;100.00;99042.70;273844;1267;22425;-86
2023/06/07 03:15:55;;;;;;;18.60;16.20;;;;;;;15.84;100.00;99044.52;273716;1265;22568;-86
2023/06/07 03:22:00;;;;;;;20.20;16.50;;;;;;;15.86;100.00;99047.59;273645;1253;22400;-85
2023/06/07 03:28:07;;;;;;;18.40;16.00;;;;;;;15.87;100.00;99045.99;273647;1257;22878;-86
2023/06/07 03:34:14;;;;;;;18.60;14.80;;;;;;;15.88;100.00;99045.73;273447;1267;22372;-86
2023/06/07 03:40:17;;;;;;;21.90;16.90;;;;;;;15.90;100.00;99050.13;273744;1266;23692;-86
2023/06/07 03:46:19;;;;;;;24.50;16.80;;;;;;;15.93;100.00;99049.55;273974;1267;22404;-85
2023/06/07 03:52:22;;;;;;;19.30;15.90;;;;;;;15.97;100.00;99052.92;273870;1267;22243;-85
2023/06/07 03:58:25;;;;;;;19.20;15.80;;;;;;;16.01;100.00;99056.58;273778;1266;22513;-86
2023/06/07 04:04:27;;;;;;;19.90;16.50;;;;;;;16.04;100.00;99056.46;273807;1266;23374;-85
2023/06/07 04:10:30;;;;;;;22.40;17.10;;;;;;;16.08;100.00;99061.23;273975;1266;22361;-85
2023/06/07 04:16:32;;;;;;;18.60;15.50;;;;;;;16.12;100.00;99056.23;273945;1267;22358;-85
2023/06/07 04:22:35;;;;;;;19.30;15.90;;;;;;;16.13;100.00;99057.80;272038;1266;22329;-86
2023/06/07 04:28:40;;;;;;;19.40;15.90;;;;;;;16.17;100.00;99060.21;273636;1266;22869;-86
2023/06/07 04:42:03;;;;;;;19.50;15.20;;;;;;;16.23;100.00;99061.56;273580;1266;22439;-86
2023/06/07 04:56:42;;;;;;;17.90;15.60;;;;;;;16.29;100.00;99065.36;272678;1257;22487;-85
2023/06/07 05:02:45;;;;;;;20.20;14.70;;;;;;;16.34;100.00;99066.66;272482;1267;23149;-85
2023/06/07 05:08:49;;;;;;;18.80;15.10;;;;;;;16.41;100.00;99066.66;272875;1266;22394;-86
2023/06/07 05:14:51;;;;;;;17.30;14.00;;;;;;;16.49;100.00;99062.88;273639;1266;23138;-85
2023/06/07 05:20:53;;;;;;;23.20;16.00;;;;;;;16.58;100.00;99066.80;273275;1266;22475;-85
2023/06/07 05:26:55;;;;;;;17.70;14.10;;;;;;;16.62;100.00;99063.36;273713;1266;24243;-86
2023/06/07 05:32:58;;;;;;;15.30;13.40;;;;;;;16.69;100.00;99066.04;273503;1266;23716;-86
2023/06/07 05:39:01;;;;;;;14.20;12.70;;;;;;;16.81;100.00;99068.80;273535;1266;22372;-86
2023/06/07 05:45:05;;;;;;;15.10;13.50;;;;;;;16.87;100.00;99065.33;273588;1266;22380;-85
2023/06/07 05:51:07;;;;;;;13.50;11.80;;;;;;;17.02;100.00;99066.30;273922;1266;23653;-86
2023/06/07 05:57:09;;;;;;;14.80;12.50;;;;;;;17.27;100.00;99074.98;273361;1264;22972;-86
2023/06/07 06:19:34;;;;;;;14.50;10.90;;;;;;;17.80;100.00;99076.71;272624;1273;22315;-86
2023/06/07 06:26:02;;;;;;;13.30;10.40;;;;;;;18.05;100.00;99077.30;271949;1268;22542;-85
2023/06/07 06:32:05;;;;;;;13.20;11.30;;;;;;;18.26;100.00;99074.62;272841;1269;23169;-84
2023/06/07 06:38:08;;;;;;;14.40;11.10;;;;;;;18.44;100.00;99068.77;272946;1271;22294;-84
2023/06/07 06:44:09;;;;;;;11.20;10.10;;;;;;;18.59;100.00;99069.58;273099;1274;22452;-86
2023/06/07 06:50:24;;;;;;;11.20;9.60;;;;;;;18.74;100.00;99074.45;273281;1270;22217;-85
2023/06/07 06:56:26;;;;;;;11.60;9.60;;;;;;;18.92;100.00;99074.92;271795;1270;23719;-85
2023/06/07 07:10:12;;;;;;;9.30;7.50;;;;;;;19.40;100.00;99068.90;272340;1266;25379;-85
2023/06/07 07:16:16;;;;;;;10.00;7.00;;;;;;;19.54;100.00;99070.23;272572;1265;23318;-86
2023/06/07 07:22:18;;;;;;;7.80;6.90;;;;;;;19.93;100.00;99076.81;271235;1264;25434;-86
2023/06/07 07:28:21;;;;;;;8.80;7.10;;;;;;;20.16;100.00;99082.58;271133;1265;22994;-84
2023/06/07 07:34:23;;;;;;;11.60;8.00;;;;;;;20.20;100.00;99088.99;273342;1265;23788;-86
2023/06/07 07:40:24;;;;;;;8.50;6.90;;;;;;;20.52;100.00;99086.95;274135;1265;22443;-86
2023/06/07 07:46:51;;;;;;;12.50;7.60;;;;;;;20.93;98.93;99089.61;273997;1256;22310;-88
2023/06/07 07:53:47;;;;;;;6.60;5.60;;;;;;;20.81;97.39;99092.73;274155;1265;22300;-86
2023/06/07 08:00:39;;;;;;;8.00;5.40;;;;;;;20.73;96.97;99089.63;274072;1265;22196;-85
2023/06/07 08:06:41;;;;;;;6.90;5.30;;;;;;;20.80;96.09;99089.58;274030;1265;22488;-86
2023/06/07 08:19:47;;;;;;;6.60;4.60;;;;;;;21.10;94.37;99089.77;272159;1265;22327;-85
2023/06/07 08:25:53;;;;;;;5.60;4.40;;;;;;;21.30;93.95;99089.05;273906;1256;23143;-85
2023/06/07 08:32:07;;;;;;;5.20;4.60;;;;;;;21.87;93.38;99088.48;273938;1265;22355;-86
2023/06/07 08:38:09;;;;;;;6.20;5.10;;;;;;;22.19;91.12;99084.12;272404;1265;25301;-86
2023/06/07 08:44:13;;;;;;;3.90;3.40;;;;;;;22.12;89.39;99079.99;272721;1265;22306;-86
2023/06/07 08:50:17;;;;;;;8.60;4.30;;;;;;;22.25;88.65;99074.75;272218;1265;22535;-86
2023/06/07 08:56:21;;;;;;;7.90;4.30;;;;;;;22.53;87.06;99075.80;270450;1265;22552;-85
2023/06/07 09:02:25;;;;;;;8.00;3.60;;;;;;;22.80;85.90;99070.23;272075;1265;22188;-87
2023/06/07 09:08:27;;;;;;;6.00;3.40;;;;;;;23.04;84.73;99065.92;274000;1265;22466;-86
2023/06/07 09:14:32;;;;;;;6.10;3.60;;;;;;;23.00;83.02;99065.04;273827;1255;22505;-87
2023/06/07 09:20:35;;;;;;;8.10;4.00;;;;;;;22.90;81.95;99069.57;273991;1265;22348;-87
2023/06/07 09:26:38;;;;;;;4.00;3.30;;;;;;;23.08;81.21;99067.50;274101;1256;22425;-86
2023/06/07 09:32:39;;;;;;;4.70;3.20;;;;;;;23.07;80.00;99068.27;272473;1265;23800;-86
2023/06/07 09:38:42;;;;;;;6.60;3.40;;;;;;;22.78;79.22;99068.39;270793;1265;22510;-88
2023/06/07 09:44:46;;;;;;;5.50;3.00;;;;;;;22.64;78.80;99068.13;270649;1266;24962;-88
2023/06/07 09:50:58;;;;;;;6.20;3.20;;;;;;;22.58;78.03;99063.82;270642;1266;23368;-86
2023/06/07 09:57:00;;;;;;;4.70;3.00;;;;;;;22.48;77.70;99065.49;272603;1265;22395;-85
2023/06/07 10:26:29;;;;;;;6.80;4.20;;;;;;;21.78;77.68;99055.79;270741;1270;22195;-88
2023/06/07 10:32:38;;;;;;;4.90;3.90;;;;;;;21.75;77.45;99055.41;271641;1269;23547;-86
2023/06/07 10:38:47;;;;;;;;;;;;;;;21.70;77.94;99052.46;273520;1266;23584;-86
2023/06/07 10:44:49;;;;;;;4.50;3.70;;;;;;;21.73;77.80;99054.19;274042;1266;23104;-86
2023/06/07 10:50:51;;;;;;;6.30;4.60;;;;;;;21.71;76.93;99050.28;272191;1265;23332;-86
2023/06/07 10:56:59;;;;;;;7.60;4.20;;;;;;;21.62;76.71;99040.40;274075;1266;22408;-86
2023/06/07 11:03:04;;;;;;;8.00;3.60;;;;;;;21.60;77.13;99039.50;274005;1266;22217;-86
2023/06/07 11:09:33;;;;;;;4.70;4.10;;;;;;;21.62;77.12;99037.27;272643;1255;22410;-86
2023/06/07 11:15:35;;;;;;;5.40;3.90;;;;;;;21.74;76.86;99036.84;274076;1265;23284;-84
2023/06/07 11:21:54;;;;;;;6.60;3.90;;;;;;;21.80;76.85;99039.04;273539;1259;23081;-84
2023/06/07 11:27:57;;;;;;;4.70;3.60;;;;;;;21.74;76.50;99038.98;272978;1265;22231;-85
2023/06/07 11:33:58;;;;;;;3.80;3.20;;;;;;;21.74;76.32;99036.19;274057;1266;23207;-87
2023/06/07 11:40:01;;;;;;;4.30;3.90;;;;;;;21.67;75.92;99040.00;270807;1267;22547;-86
2023/06/07 11:46:07;;;;;;;5.10;3.90;;;;;;;21.35;76.07;99045.49;272045;1266;22585;-85
2023/06/07 11:52:13;;;;;;;8.70;5.10;;;;;;;20.90;77.52;99048.83;273926;1269;22198;-85
2023/06/07 11:58:22;;;;;;;6.70;6.10;;;;;;;20.51;78.71;99054.73;273887;1267;23316;-85
2023/06/07 12:04:26;;;;;;;8.40;5.20;;;;;;;20.17;79.84;99055.23;273845;1265;22407;-86
2023/06/07 12:10:32;;;;;;;6.60;5.70;;;;;;;20.01;80.83;99057.39;273785;1267;22777;-86
2023/06/07 12:16:37;;;;;;;8.00;5.20;;;;;;;19.92;81.41;99052.63;273457;1266;22305;-83
2023/06/07 12:22:41;;;;;;;7.50;5.00;;;;;;;19.80;82.70;99048.04;273714;1266;22313;-85
2023/06/07 12:28:43;;;;;;;7.40;5.80;;;;;;;19.81;83.45;99045.05;273821;1266;22195;-85
2023/06/07 12:34:45;;;;;;;6.40;4.80;;;;;;;19.85;84.81;99042.80;272032;1267;22504;-87
2023/06/07 12:40:47;;;;;;;6.90;4.20;;;;;;;19.92;85.01;99041.98;273703;1266;23319;-86
2023/06/07 12:46:49;;;;;;;4.90;4.20;;;;;;;19.93;85.93;99039.98;273981;1267;22367;-86
2023/06/07 12:52:52;;;;;;;7.90;3.90;;;;;;;20.11;87.05;99036.10;272344;1266;22543;-84
2023/06/07 12:58:53;;;;;;;5.20;4.00;;;;;;;20.19;86.09;99036.45;271782;1256;22556;-85
2023/06/07 13:04:59;;;;;;;5.90;3.60;;;;;;;20.21;86.07;99029.89;271199;1266;22699;-84
2023/06/07 13:11:04;;;;;;;3.80;3.40;;;;;;;20.29;85.95;99030.33;271618;1262;22156;-85
2023/06/07 13:17:10;;;;;;;5.60;3.50;;;;;;;20.53;86.47;99025.43;272100;1260;23884;-85
2023/06/07 13:23:13;;;;;;;5.60;3.60;;;;;;;20.95;85.69;99018.71;270608;1266;22582;-87
2023/06/07 13:29:14;;;;;;;4.50;2.90;;;;;;;21.23;84.83;99018.16;272577;1266;22325;-85
2023/06/07 13:35:16;;;;;;;4.60;2.90;;;;;;;21.46;83.81;99014.01;273501;1267;22306;-87
2023/06/07 13:41:22;;;;;;;4.10;2.80;;;;;;;21.61;83.18;99008.75;273222;1266;22576;-86
2023/06/07 13:47:28;;;;;;;5.00;3.50;;;;;;;21.58;82.36;99006.30;272481;1266;22519;-86
2023/06/07 13:53:52;;;;;;;4.80;3.20;;;;;;;21.53;81.81;99004.06;272818;1266;22185;-86
2023/06/07 13:59:59;;;;;;;3.10;2.80;;;;;;;21.58;81.80;99001.29;273608;1266;23699;-86
2023/06/07 14:06:02;;;;;;;5.70;2.30;;;;;;;21.70;81.21;99002.56;273879;1266;22462;-86
2023/06/07 14:12:08;;;;;;;4.40;2.80;;;;;;;21.75;79.85;99007.83;274105;1266;23167;-86
2023/06/07 14:18:10;;;;;;;3.20;2.60;;;;;;;21.72;79.04;99008.23;274023;1267;23276;-87
2023/06/07 14:24:12;;;;;;;3.20;1.80;;;;;;;21.72;78.53;99002.90;273795;1266;23111;-87
2023/06/07 14:30:15;;;;;;;1.90;1.30;;;;;;;21.77;77.47;99007.55;274109;1256;22369;-87
2023/06/07 14:36:17;;;;;;;4.20;1.80;;;;;;;21.76;76.92;99004.77;273498;1267;22556;-88
2023/06/07 14:42:39;;;;;;;2.40;2.00;;;;;;;21.68;76.74;99005.14;272993;1266;22685;-87
2023/06/07 14:48:45;;;;;;;5.20;2.30;;;;;;;21.61;76.56;99006.13;273893;1267;22328;-86
2023/06/07 14:54:47;;;;;;;2.30;2.00;;;;;;;21.50;76.73;99006.47;273560;1269;22598;-88
2023/06/07 15:00:49;;;;;;;4.90;2.70;;;;;;;21.39;76.93;99008.98;273031;1266;22406;-86
2023/06/07 15:06:51;;;;;;;7.50;2.70;;;;;;;21.22;77.09;99012.97;274040;1265;23559;-88
2023/06/07 15:12:54;;;;;;;5.20;3.10;;;;;;;21.15;77.53;99010.72;273894;1266;23452;-88
2023/06/07 15:18:56;;;;;;;3.20;3.00;;;;;;;21.20;77.73;99013.11;273926;1266;22269;-86
2023/06/07 15:24:58;;;;;;;2.80;2.30;;;;;;;21.16;77.57;99020.56;272402;1267;24507;-88
2023/06/07 15:31:00;;;;;;;3.40;2.10;;;;;;;21.12;78.01;99028.71;272867;1267;22343;-89
2023/06/07 15:37:02;;;;;;;4.00;2.70;;;;;;;21.13;78.18;99028.27;273845;1267;22416;-87
2023/06/07 15:43:04;;;;;;;2.80;2.40;;;;;;;21.03;78.20;99022.94;272478;1266;22304;-87
2023/06/07 15:49:26;;;;;;;7.90;3.60;;;;;;;20.96;78.88;99020.43;272921;1266;23107;-84
2023/06/07 15:55:27;;;;;;;6.10;3.20;;;;;;;20.82;79.26;99020.45;274040;1266;22401;-86
2023/06/07 16:01:44;;;;;;;4.00;3.30;;;;;;;20.67;79.75;99023.52;273767;1266;22392;-87
2023/06/07 16:07:47;;;;;;;5.20;4.10;;;;;;;20.53;80.21;99024.31;272433;1266;22274;-87
2023/06/07 16:13:51;;;;;;;4.30;3.70;;;;;;;20.45;80.69;99025.66;272204;1264;23045;-87
2023/06/07 16:19:53;;;;;;;5.50;3.50;;;;;;;20.37;81.26;99032.55;266264;1266;10001656;-85
2023/06/07 16:25:55;;;;;;;4.70;4.00;;;;;;;20.33;81.80;99030.68;273873;1266;22188;-86
2023/06/07 16:31:58;;;;;;;4.90;3.60;;;;;;;20.29;82.04;99037.71;273701;1266;23626;-83
2023/06/07 16:38:00;;;;;;;6.00;4.00;;;;;;;20.23;82.17;99036.27;273732;1266;22265;-85
2023/06/07 16:44:03;;;;;;;7.00;4.30;;;;;;;20.18;82.56;99032.59;271502;1266;1918097;-88
2023/06/07 16:50:05;;;;;;;5.40;4.90;;;;;;;20.12;83.07;99033.04;272570;1267;22500;-87
2023/06/07 16:56:08;;;;;;;4.90;4.40;;;;;;;20.05;83.78;99029.02;273870;1266;22197;-87
2023/06/07 17:02:10;;;;;;;7.80;4.90;;;;;;;19.98;84.64;99030.48;273900;1267;22291;-87
2023/06/07 17:08:13;;;;;;;6.60;5.20;;;;;;;19.93;84.96;99021.89;273853;1267;23368;-86
2023/06/07 17:14:18;;;;;;;8.60;5.40;;;;;;;19.88;85.49;99017.56;273761;1267;22174;-86
2023/06/07 17:20:25;;;;;;;5.60;3.80;;;;;;;19.85;85.77;99016.55;273915;1267;22837;-86
2023/06/07 17:26:28;;;;;;;6.30;3.50;;;;;;;19.75;85.51;99013.54;273829;1257;23487;-86
2023/06/07 17:32:42;;;;;;;;;;;;;;;;;;;;;
2023/06/07 17:38:53;;;;;;;4.10;3.10;;;;;;;19.55;85.77;99016.42;273306;1267;22201;-86
2023/06/07 17:44:54;;;;;;;6.10;3.40;;;;;;;19.49;86.27;99022.20;273920;1266;22147;-86
2023/06/07 17:50:58;;;;;;;4.40;3.10;;;;;;;19.42;86.27;99025.15;273544;1266;22462;-86
2023/06/07 17:57:00;;;;;;;4.10;2.70;;;;;;;19.32;86.48;99028.73;272784;1266;22547;-85
2023/06/07 18:03:06;;;;;;;3.30;2.50;;;;;;;19.20;86.66;99030.23;273728;1266;22206;-86
2023/06/07 18:09:08;;;;;;;5.00;2.90;;;;;;;19.12;87.26;99033.20;273879;1266;23194;-85
2023/06/07 18:15:13;;;;;;;3.70;2.80;;;;;;;19.08;87.64;99035.33;273797;1265;23876;-86
2023/06/07 18:21:39;;;;;;;4.40;3.00;;;;;;;19.05;88.16;99036.92;272748;1264;24237;-86
2023/06/07 18:27:41;;;;;;;5.90;3.70;;;;;;;19.00;88.35;99039.02;272731;1258;22550;-86
2023/06/07 18:34:23;;;;;;;5.80;3.80;;;;;;;18.96;88.69;99038.78;271633;1263;22554;-86
2023/06/07 18:40:25;;;;;;;5.80;3.70;;;;;;;18.89;88.95;99040.19;273732;1266;22168;-87
2023/06/07 18:46:29;;;;;;;4.70;3.80;;;;;;;18.81;89.37;99045.92;272282;1265;23944;-85
2023/06/07 18:52:42;;;;;;;;;;;;;;;;;;;;;
2023/06/07 18:58:45;;;;;;;6.70;4.30;;;;;;;18.70;90.49;99042.45;273194;1265;23195;-85
2023/06/07 19:04:48;;;;;;;7.10;5.30;;;;;;;18.64;90.83;99051.11;273771;1266;22400;-87
2023/06/07 19:10:57;;;;;;;7.50;5.10;;;;;;;18.58;91.20;99057.80;273678;1265;23201;-86
2023/06/07 19:17:07;;;;;;;12.00;6.30;;;;;;;18.51;91.73;99065.39;273861;1265;22446;-86
2023/06/07 19:23:10;;;;;;;11.10;5.90;;;;;;;18.47;92.21;99074.02;273846;1265;22357;-86
2023/06/07 19:29:32;;;;;;;9.50;6.00;;;;;;;18.44;92.70;99077.41;273687;1264;23188;-86
2023/06/07 19:35:35;;;;;;;9.20;6.10;;;;;;;18.41;93.12;99080.32;273824;1265;22410;-87
2023/06/07 19:41:41;;;;;;;7.00;5.60;;;;;;;18.35;93.55;99078.90;273727;1265;22321;-86
2023/06/07 19:48:05;;;;;;;9.40;5.50;;;;;;;18.28;94.17;99075.00;273751;1265;22343;-87
2023/06/07 19:54:08;;;;;;;10.40;8.40;;;;;;;18.21;94.51;99077.48;272405;1266;23130;-87
2023/06/07 20:00:11;;;;;;;9.70;8.20;;;;;;;18.17;95.05;99078.19;273268;1265;22363;-86
2023/06/07 20:06:17;;;;;;;9.90;6.90;;;;;;;18.13;95.40;99078.98;273806;1265;22477;-87
2023/06/07 20:12:21;;;;;;;12.10;7.80;;;;;;;18.08;95.66;99082.78;272124;1265;22310;-86
2023/06/07 20:18:43;;;;;;;15.10;8.90;;;;;;;18.05;96.17;99086.57;273927;1265;23472;-87
2023/06/07 20:24:45;;;;;;;13.70;8.50;;;;;;;17.99;96.45;99082.23;273815;1265;22325;-86
2023/06/07 20:31:06;;;;;;;14.90;8.70;;;;;;;17.92;96.73;99080.55;273876;1265;22174;-86
2023/06/07 20:37:11;;;;;;;14.70;9.00;;;;;;;17.83;97.11;99077.85;273832;1265;22327;-86
2023/06/07 20:43:14;;;;;;;17.30;9.90;;;;;;;17.76;97.68;99082.80;274004;1265;22336;-86
2023/06/07 20:49:16;;;;;;;17.80;8.40;;;;;;;17.69;97.96;99084.40;273956;1265;22403;-85
2023/06/07 20:55:20;;;;;;;7.60;6.20;;;;;;;17.61;98.32;99081.36;273390;1265;23114;-87
2023/06/07 21:01:22;;;;;;;6.70;5.60;;;;;;;17.51;98.59;99080.58;273869;1265;22319;-87
2023/06/07 21:07:25;;;;;;;9.50;5.80;;;;;;;17.43;99.12;99085.11;272685;1265;22327;-87
2023/06/07 21:13:27;;;;;;;8.60;6.00;;;;;;;17.37;99.50;99091.98;271520;1263;23336;-86
2023/06/07 21:19:50;;;;;;;6.10;5.50;;;;;;;17.27;99.63;99096.00;271591;1265;26508;-86
2023/06/07 21:25:54;;;;;;;6.50;5.60;;;;;;;17.12;99.86;99097.70;270498;1265;22551;-86
2023/06/07 21:31:56;;;;;;;6.60;5.70;;;;;;;17.02;100.00;99101.08;270657;1258;22555;-86
2023/06/07 21:37:58;;;;;;;7.70;5.50;;;;;;;16.86;99.99;99096.77;271214;1265;22872;-86
2023/06/07 21:44:01;;;;;;;7.80;7.00;;;;;;;16.62;99.99;99087.67;274005;1266;22420;-87
2023/06/07 21:50:04;;;;;;;8.70;7.60;;;;;;;16.43;100.00;99082.83;272497;1265;22613;-86
2023/06/07 21:56:06;;;;;;;10.10;7.20;;;;;;;16.31;100.00;99080.50;270958;1265;22556;-86
2023/06/07 22:02:28;;;;;;;10.20;7.20;;;;;;;16.16;100.00;99083.34;273993;1265;22435;-86
2023/06/07 22:08:38;;;;;;;9.30;7.70;;;;;;;16.04;100.00;99084.48;272209;1265;23008;-86
2023/06/07 22:14:41;;;;;;;11.00;8.60;;;;;;;15.91;100.00;99074.74;271673;1265;22248;-87
2023/06/07 22:20:45;;;;;;;18.60;8.60;;;;;;;15.72;100.00;99067.96;274009;1265;23843;-85
2023/06/07 22:26:48;;;;;;;9.60;7.90;;;;;;;15.48;100.00;99069.25;273949;1265;22530;-86
2023/06/07 22:32:52;;;;;;;12.10;8.70;;;;;;;15.37;100.00;99072.41;274045;1265;22394;-86
2023/06/07 22:39:28;;;;;;;9.60;8.50;;;;;;;15.28;100.00;99068.58;272564;1266;22577;-86
2023/06/07 22:45:42;;;;;;;13.80;8.80;;;;;;;15.30;100.00;99062.49;272472;1266;22569;-84
2023/06/07 22:52:05;;;;;;;12.00;8.00;;;;;;;15.22;100.00;99057.90;271853;1266;22169;-84
2023/06/07 22:58:07;;;;;;;14.80;9.00;;;;;;;15.09;100.00;99055.77;273524;1265;23507;-85
2023/06/07 23:04:13;;;;;;;14.70;8.90;;;;;;;14.96;100.00;99057.27;272631;1266;22663;-85
2023/06/07 23:10:17;;;;;;;12.40;9.30;;;;;;;14.80;100.00;99055.85;270807;1266;22845;-85
2023/06/07 23:16:20;;;;;;;10.80;7.50;;;;;;;14.66;100.00;99057.82;271052;1266;22327;-85
2023/06/07 23:22:40;;;;;;;12.40;9.60;;;;;;;14.55;100.00;99045.66;274132;1266;22228;-86
2023/06/07 23:28:44;;;;;;;15.90;9.50;;;;;;;14.41;100.00;99046.02;273369;1266;22511;-85
2023/06/07 23:34:47;;;;;;;12.80;9.70;;;;;;;14.24;100.00;99046.38;273374;1263;23245;-84
2023/06/07 23:40:48;;;;;;;11.80;9.60;;;;;;;14.12;100.00;99043.88;272162;1267;22520;-84
2023/06/07 23:46:51;;;;;;;17.00;9.50;;;;;;;14.10;100.00;99041.28;270502;1253;23160;-85
2023/06/07 23:52:53;;;;;;;11.60;9.70;;;;;;;14.05;100.00;99046.95;270537;1266;22574;-86
2023/06/07 23:58:54;;;;;;;12.50;9.50;;;;;;;14.01;100.00;99043.43;270984;1253;25081;-85
